Time;durP1;ratioP1;P1;durP2;ratioP2;P2;SDS_P1;SDS_P2;PMS_P1;PMS_P2;Temp;Humidity;BMP_temperature;BMP_pressure;BME280_temperature;BME280_humidity;BME280_pressure;Samples;Min_cycle;Max_cycle;Signal;HPM_P1;HPM_P2
2022/12/05 00:00:25;;;;;;;35.63;16.85;;;4.20;99.90;;;;;;5107498;28;20043;-61
2022/12/05 00:02:50;;;;;;;39.40;17.65;;;4.20;99.90;;;;;;5108187;28;20070;-63
2022/12/05 00:05:16;;;;;;;39.10;16.45;;;4.20;99.90;;;;;;5087391;28;20416;-63
2022/12/05 00:07:44;;;;;;;34.72;15.60;;;4.20;99.90;;;;;;5106460;28;20417;-63
2022/12/05 00:10:10;;;;;;;36.67;16.15;;;4.20;99.90;;;;;;5107221;28;20044;-63
2022/12/05 00:12:35;;;;;;;37.55;16.60;;;4.20;99.90;;;;;;5105047;28;20055;-62
2022/12/05 00:15:01;;;;;;;42.00;16.98;;;4.20;99.90;;;;;;5102088;28;20130;-63
2022/12/05 00:17:27;;;;;;;37.15;15.82;;;4.20;99.90;;;;;;5109718;28;20047;-63
2022/12/05 00:19:52;;;;;;;34.08;15.57;;;4.20;99.90;;;;;;5105593;28;20433;-61
2022/12/05 00:22:18;;;;;;;36.47;16.13;;;4.20;99.90;;;;;;5112483;28;20601;-63
2022/12/05 00:24:43;;;;;;;37.47;16.05;;;4.20;99.90;;;;;;5103176;28;20043;-62
2022/12/05 00:27:09;;;;;;;38.75;17.75;;;4.20;99.90;;;;;;5108535;28;20086;-62
2022/12/05 00:29:35;;;;;;;37.28;16.95;;;4.20;99.90;;;;;;5107118;28;20043;-61
2022/12/05 00:32:00;;;;;;;38.92;15.77;;;4.20;99.90;;;;;;5108325;28;20039;-62
2022/12/05 00:34:26;;;;;;;34.97;15.82;;;4.20;99.90;;;;;;5106453;28;20042;-62
2022/12/05 00:36:51;;;;;;;37.22;16.75;;;4.20;99.90;;;;;;5107676;28;20043;-63
2022/12/05 00:39:17;;;;;;;38.05;16.40;;;4.20;99.90;;;;;;5103410;28;20450;-63
2022/12/05 00:41:43;;;;;;;34.67;15.50;;;4.20;99.90;;;;;;5109054;28;20449;-61
2022/12/05 00:44:10;;;;;;;41.10;17.58;;;4.20;99.90;;;;;;5091994;28;20418;-62
2022/12/05 00:46:36;;;;;;;40.35;16.73;;;4.20;99.90;;;;;;5101382;28;20036;-62
2022/12/05 00:49:04;;;;;;;36.92;16.55;;;4.30;99.90;;;;;;5103475;28;20054;-62
2022/12/05 00:51:32;;;;;;;40.50;16.52;;;4.30;99.90;;;;;;5103132;28;20035;-62
2022/12/05 00:54:00;;;;;;;34.38;16.65;;;4.30;99.90;;;;;;5108386;28;20036;-63
2022/12/05 00:56:27;;;;;;;38.20;15.88;;;4.30;99.90;;;;;;5099229;28;20378;-62
2022/12/05 00:58:54;;;;;;;38.88;16.65;;;4.30;99.90;;;;;;5100670;28;20359;-62
2022/12/05 01:01:24;;;;;;;36.40;16.63;;;4.30;99.90;;;;;;5084395;28;20038;-62
2022/12/05 01:03:53;;;;;;;35.42;16.70;;;4.30;99.90;;;;;;5108323;28;20036;-62
2022/12/05 01:06:19;;;;;;;40.30;17.67;;;4.30;99.90;;;;;;5082356;28;20108;-64
2022/12/05 01:08:45;;;;;;;37.08;17.05;;;4.40;99.90;;;;;;5084244;28;20063;-62
2022/12/05 01:11:14;;;;;;;39.05;17.45;;;4.40;99.90;;;;;;5082918;28;20044;-62
2022/12/05 01:13:40;;;;;;;36.35;16.98;;;4.40;99.90;;;;;;5101290;28;20058;-62
2022/12/05 01:16:06;;;;;;;38.20;17.25;;;4.40;99.90;;;;;;5101987;28;20032;-61
2022/12/05 01:18:32;;;;;;;36.95;17.08;;;4.40;99.90;;;;;;5083594;28;20045;-62
2022/12/05 01:20:57;;;;;;;39.10;16.10;;;4.40;99.90;;;;;;5107681;28;20092;-62
2022/12/05 01:23:23;;;;;;;42.47;18.25;;;4.40;99.90;;;;;;5087627;28;20063;-62
2022/12/05 01:25:50;;;;;;;38.20;18.05;;;4.40;99.90;;;;;;5107980;28;20089;-64
2022/12/05 01:28:17;;;;;;;42.67;18.38;;;4.50;99.90;;;;;;5104368;28;20378;-62
2022/12/05 01:30:46;;;;;;;45.10;18.17;;;4.50;99.90;;;;;;5083022;28;20047;-63
2022/12/05 01:33:12;;;;;;;43.78;18.92;;;4.50;99.90;;;;;;5110791;28;20035;-61
2022/12/05 01:35:39;;;;;;;41.25;18.13;;;4.50;99.90;;;;;;5089292;28;20109;-62
2022/12/05 01:38:05;;;;;;;38.65;17.15;;;4.50;99.90;;;;;;5100150;28;20036;-61
2022/12/05 01:40:32;;;;;;;39.85;17.95;;;4.50;99.90;;;;;;5109557;28;20031;-61
2022/12/05 01:42:58;;;;;;;46.35;19.17;;;4.50;99.90;;;;;;5109647;28;20039;-63
2022/12/05 01:45:37;;;;;;;51.17;21.70;;;4.50;99.90;;;;;;5105075;28;20469;-63
2022/12/05 01:48:06;;;;;;;46.05;20.23;;;4.50;99.90;;;;;;5109063;28;20035;-63
2022/12/05 01:50:33;;;;;;;57.58;23.45;;;4.60;99.90;;;;;;5111159;28;20402;-62
2022/12/05 01:52:59;;;;;;;52.53;22.40;;;4.60;99.90;;;;;;5109851;28;20054;-62
2022/12/05 01:55:25;;;;;;;52.15;21.23;;;4.60;99.90;;;;;;5106949;28;20522;-61
2022/12/05 01:57:51;;;;;;;47.70;20.80;;;4.60;99.90;;;;;;5097239;28;20045;-62
2022/12/05 02:00:19;;;;;;;52.45;22.70;;;4.60;99.90;;;;;;5102791;28;20032;-62
2022/12/05 02:02:55;;;;;;;49.03;21.00;;;4.60;99.90;;;;;;5106568;28;20027;-64
2022/12/05 02:05:32;;;;;;;51.47;21.85;;;4.60;99.90;;;;;;5102548;28;21221;-62
2022/12/05 02:08:01;;;;;;;46.08;20.92;;;4.60;99.90;;;;;;5082635;28;20035;-61
2022/12/05 02:10:29;;;;;;;51.88;21.95;;;4.60;99.90;;;;;;5100644;28;20066;-61
2022/12/05 02:13:02;;;;;;;50.45;21.40;;;4.60;99.90;;;;;;5099155;28;20058;-61
2022/12/05 02:15:39;;;;;;;51.60;21.52;;;4.70;99.90;;;;;;5113034;28;20517;-62
2022/12/05 02:18:04;;;;;;;55.05;20.48;;;4.70;99.90;;;;;;5101894;28;20059;-62
2022/12/05 02:20:57;;;;;;;47.13;20.38;;;4.70;99.90;;;;;;5081771;28;20600;-62
2022/12/05 02:23:52;;;;;;;48.80;20.83;;;4.70;99.90;;;;;;5083419;28;20032;-62
2022/12/05 02:26:40;;;;;;;56.25;21.65;;;4.70;99.90;;;;;;5099105;28;20154;-63
2022/12/05 02:29:46;;;;;;;53.45;20.65;;;4.70;99.90;;;;;;5082413;28;20490;-62
2022/12/05 02:32:36;;;;;;;49.47;20.23;;;4.70;99.90;;;;;;5101424;28;20048;-63
2022/12/05 02:35:30;;;;;;;47.95;20.63;;;4.70;99.90;;;;;;5083462;28;20155;-62
2022/12/05 02:38:09;;;;;;;46.53;20.83;;;4.70;99.90;;;;;;5099339;28;20035;-61
2022/12/05 02:41:02;;;;;;;49.05;21.38;;;4.70;99.90;;;;;;5078211;28;20043;-62
2022/12/05 02:43:31;;;;;;;49.70;20.10;;;4.70;99.90;;;;;;5083619;28;20040;-62
2022/12/05 02:46:03;;;;;;;47.63;19.40;;;4.70;99.90;;;;;;5100417;28;20036;-62
2022/12/05 02:48:28;;;;;;;48.78;19.80;;;4.70;99.90;;;;;;5105670;28;20089;-64
2022/12/05 02:50:58;;;;;;;52.85;19.92;;;4.70;99.90;;;;;;5102076;28;22292;-62
2022/12/05 02:53:25;;;;;;;53.53;22.03;;;4.70;99.90;;;;;;5086867;28;20078;-63
2022/12/05 02:55:52;;;;;;;51.15;20.85;;;4.70;99.90;;;;;;5085935;28;20506;-63
2022/12/05 02:58:23;;;;;;;45.90;19.17;;;4.60;99.90;;;;;;5107101;28;20051;-63
2022/12/05 03:00:52;;;;;;;49.13;19.58;;;4.70;99.90;;;;;;5091394;28;20494;-63
2022/12/05 03:03:20;;;;;;;51.45;20.20;;;4.60;99.90;;;;;;5108274;28;20173;-62
2022/12/05 03:06:16;;;;;;;48.75;19.48;;;4.60;99.90;;;;;;5086921;28;20050;-62
2022/12/05 03:08:50;;;;;;;47.88;19.92;;;4.60;99.90;;;;;;5107729;28;20043;-64
2022/12/05 03:11:16;;;;;;;51.17;21.30;;;4.60;99.90;;;;;;5081897;28;20109;-62
2022/12/05 03:13:47;;;;;;;54.85;20.33;;;4.60;99.90;;;;;;5088526;28;20064;-64
2022/12/05 03:16:27;;;;;;;49.80;20.95;;;4.50;99.90;;;;;;5101149;28;20150;-62
2022/12/05 03:19:00;;;;;;;50.58;20.38;;;4.60;99.90;;;;;;5080819;28;20939;-62
2022/12/05 03:21:39;;;;;;;49.17;20.75;;;4.60;99.90;;;;;;5102205;28;20035;-63
2022/12/05 03:24:08;;;;;;;45.80;19.45;;;4.60;99.90;;;;;;5106594;28;20494;-63
2022/12/05 03:26:50;;;;;;;49.22;19.95;;;4.60;99.90;;;;;;5108739;28;20047;-64
2022/12/05 03:29:25;;;;;;;49.38;18.73;;;4.60;99.90;;;;;;5106365;28;20042;-64
2022/12/05 03:31:57;;;;;;;51.20;20.35;;;4.60;99.90;;;;;;5103749;28;20650;-64
2022/12/05 03:34:48;;;;;;;44.10;18.48;;;4.60;99.90;;;;;;5082552;28;20497;-62
2022/12/05 03:37:30;;;;;;;42.40;17.67;;;4.60;99.90;;;;;;5108743;28;20483;-62
2022/12/05 03:40:22;;;;;;;41.42;16.13;;;4.70;99.90;;;;;;5082868;28;20036;-63
2022/12/05 03:42:56;;;;;;;36.22;15.57;;;4.70;99.90;;;;;;5106065;28;20043;-62
2022/12/05 03:45:30;;;;;;;41.33;15.90;;;4.70;99.90;;;;;;5089676;28;20047;-63
2022/12/05 03:48:09;;;;;;;35.28;15.60;;;4.70;99.90;;;;;;5105027;28;20039;-62
2022/12/05 03:50:38;;;;;;;32.25;14.10;;;4.70;99.90;;;;;;5110645;28;20047;-63
2022/12/05 03:53:08;;;;;;;34.92;14.38;;;4.70;99.90;;;;;;5107411;28;20032;-63
2022/12/05 03:55:37;;;;;;;31.10;13.77;;;4.70;99.90;;;;;;5108998;28;20031;-63
2022/12/05 03:58:41;;;;;;;31.13;14.40;;;4.70;99.90;;;;;;5108608;28;20118;-62
2022/12/05 04:01:09;;;;;;;33.08;14.38;;;4.70;99.90;;;;;;5097295;28;20554;-63
2022/12/05 04:03:46;;;;;;;32.53;14.10;;;4.70;99.90;;;;;;5106256;28;20058;-62
2022/12/05 04:06:18;;;;;;;28.55;14.57;;;4.70;99.90;;;;;;5107566;28;20131;-62
2022/12/05 04:08:52;;;;;;;34.67;14.45;;;4.70;99.90;;;;;;5107129;28;20517;-63
2022/12/05 04:11:21;;;;;;;32.15;14.35;;;4.70;99.90;;;;;;5105792;28;20109;-63
2022/12/05 04:14:09;;;;;;;31.40;14.30;;;4.70;99.90;;;;;;5086969;28;20386;-63
2022/12/05 04:17:03;;;;;;;30.10;14.00;;;4.70;99.90;;;;;;5090019;28;20039;-62
2022/12/05 04:22:26;;;;;;;26.30;13.10;;;4.80;99.90;;;;;;5094350;28;20050;-63
2022/12/05 04:27:58;;;;;;;30.90;13.52;;;4.70;99.90;;;;;;5104860;28;20044;-62
2022/12/05 04:30:29;;;;;;;29.48;14.20;;;4.70;99.90;;;;;;5090228;28;20047;-63
2022/12/05 04:33:01;;;;;;;29.13;13.93;;;4.70;99.90;;;;;;5094854;28;20394;-62
2022/12/05 04:35:31;;;;;;;27.95;13.82;;;4.70;99.90;;;;;;5109358;28;20039;-62
2022/12/05 04:37:59;;;;;;;;;;;4.80;99.90;;;;;;5108559;28;20104;-62
2022/12/05 04:40:34;;;;;;;24.88;11.75;;;4.80;99.90;;;;;;5114002;28;20297;-62
2022/12/05 04:43:02;;;;;;;21.15;11.85;;;4.80;99.90;;;;;;5107468;28;20036;-63
2022/12/05 04:45:29;;;;;;;19.20;10.25;;;4.80;99.90;;;;;;5092017;28;20044;-63
2022/12/05 04:47:59;;;;;;;22.13;11.13;;;4.80;99.90;;;;;;5095372;28;20126;-61
2022/12/05 04:50:29;;;;;;;18.77;9.90;;;4.80;99.90;;;;;;5109357;28;20463;-63
2022/12/05 04:52:58;;;;;;;17.45;9.52;;;4.80;99.90;;;;;;5111825;28;20743;-63
2022/12/05 04:55:25;;;;;;;15.52;9.30;;;4.80;99.90;;;;;;5107792;28;20074;-63
2022/12/05 04:58:11;;;;;;;16.10;8.30;;;4.80;99.90;;;;;;5081976;28;20040;-62
2022/12/05 05:00:49;;;;;;;13.02;7.78;;;4.80;99.90;;;;;;5103198;28;20036;-64
2022/12/05 05:03:36;;;;;;;15.55;8.32;;;4.80;99.90;;;;;;5101276;28;20035;-62
2022/12/05 05:06:03;;;;;;;14.15;7.90;;;4.80;99.90;;;;;;5104972;28;20038;-62
2022/12/05 05:08:29;;;;;;;12.90;7.07;;;4.80;99.90;;;;;;5112395;28;20456;-64
2022/12/05 05:11:14;;;;;;;16.10;8.45;;;4.80;99.90;;;;;;5102840;28;20036;-65
2022/12/05 05:13:40;;;;;;;14.63;7.50;;;4.80;99.90;;;;;;5102827;28;20105;-64
2022/12/05 05:16:05;;;;;;;13.88;8.05;;;4.80;99.90;;;;;;5106471;28;20067;-64
2022/12/05 05:18:32;;;;;;;12.55;7.57;;;4.80;99.90;;;;;;5111570;28;20039;-64
2022/12/05 05:20:58;;;;;;;14.55;8.00;;;4.80;99.90;;;;;;5111744;28;20534;-64
2022/12/05 05:23:23;;;;;;;13.85;7.70;;;4.80;99.90;;;;;;5102913;28;20031;-64
2022/12/05 05:25:54;;;;;;;13.43;7.63;;;4.80;99.90;;;;;;5103183;28;20031;-64
2022/12/05 05:28:19;;;;;;;15.30;8.40;;;4.80;99.90;;;;;;5102178;28;20074;-65
2022/12/05 05:30:45;;;;;;;14.63;7.72;;;4.80;99.90;;;;;;5106725;28;20032;-64
2022/12/05 05:33:11;;;;;;;13.70;7.97;;;4.80;99.90;;;;;;5089529;28;20046;-64
2022/12/05 05:35:37;;;;;;;15.07;7.35;;;4.80;99.90;;;;;;5103255;28;20470;-65
2022/12/05 05:38:03;;;;;;;17.40;8.18;;;4.80;99.90;;;;;;5094461;28;20114;-66
2022/12/05 05:40:28;;;;;;;13.77;7.32;;;4.80;99.90;;;;;;5110061;28;20122;-64
2022/12/05 05:42:54;;;;;;;13.02;7.25;;;4.80;99.90;;;;;;5089818;28;20050;-65
2022/12/05 05:45:20;;;;;;;14.02;7.85;;;4.90;99.90;;;;;;5102308;28;20040;-66
2022/12/05 05:47:48;;;;;;;16.08;7.95;;;4.80;99.90;;;;;;5108021;28;20035;-65
2022/12/05 05:50:14;;;;;;;15.20;8.23;;;4.90;99.90;;;;;;5111191;28;20046;-65
2022/12/05 05:52:40;;;;;;;14.10;7.45;;;4.90;99.90;;;;;;5104588;28;20046;-64
2022/12/05 05:55:07;;;;;;;13.23;8.40;;;4.90;99.90;;;;;;5103084;28;20032;-64
2022/12/05 05:57:34;;;;;;;12.43;8.23;;;4.90;99.90;;;;;;5106990;28;20128;-64
2022/12/05 05:59:59;;;;;;;15.30;7.85;;;4.90;99.90;;;;;;5109565;28;20039;-64
2022/12/05 06:02:25;;;;;;;12.55;7.07;;;4.90;99.90;;;;;;5108172;28;20023;-64
2022/12/05 06:04:50;;;;;;;14.73;7.35;;;4.90;99.90;;;;;;5106213;28;20115;-64
2022/12/05 06:07:16;;;;;;;13.85;8.20;;;4.90;99.90;;;;;;5112516;28;20047;-65
2022/12/05 06:09:41;;;;;;;15.15;8.38;;;4.90;99.90;;;;;;5110235;28;20521;-64
2022/12/05 06:12:07;;;;;;;14.77;7.97;;;4.90;99.90;;;;;;5111338;28;20500;-64
2022/12/05 06:14:33;;;;;;;12.48;7.15;;;4.90;99.90;;;;;;5089209;28;20126;-67
2022/12/05 06:16:58;;;;;;;12.07;7.15;;;4.90;99.90;;;;;;5097426;28;20052;-65
2022/12/05 06:19:24;;;;;;;13.15;7.63;;;4.90;99.90;;;;;;5092124;28;20036;-66
2022/12/05 06:21:50;;;;;;;12.63;6.68;;;4.90;99.90;;;;;;5077775;28;20435;-66
2022/12/05 06:24:16;;;;;;;12.98;7.00;;;4.90;99.90;;;;;;5102088;28;20510;-66
2022/12/05 06:26:42;;;;;;;12.68;6.97;;;4.90;99.90;;;;;;5100466;28;20459;-65
2022/12/05 06:29:08;;;;;;;12.52;6.85;;;4.90;99.90;;;;;;5077965;28;20109;-67
2022/12/05 06:31:34;;;;;;;12.57;6.72;;;4.90;99.90;;;;;;5079321;28;20039;-67
2022/12/05 06:34:01;;;;;;;12.15;6.60;;;4.90;99.90;;;;;;5103498;28;20040;-66
2022/12/05 06:36:28;;;;;;;13.27;7.00;;;4.90;99.90;;;;;;5108358;28;20129;-67
2022/12/05 06:38:56;;;;;;;13.02;6.43;;;4.90;99.90;;;;;;5098842;28;20047;-65
2022/12/05 06:41:23;;;;;;;12.82;6.65;;;4.90;99.90;;;;;;5075910;28;20074;-66
2022/12/05 06:43:52;;;;;;;12.32;7.22;;;4.90;99.90;;;;;;5075546;28;20071;-65
2022/12/05 06:46:18;;;;;;;12.10;6.82;;;4.90;99.90;;;;;;5078655;28;20051;-67
2022/12/05 06:48:43;;;;;;;11.85;6.28;;;4.90;99.90;;;;;;5077641;28;20043;-66
2022/12/05 06:51:11;;;;;;;15.48;7.38;;;4.90;99.90;;;;;;5110489;28;20039;-65
2022/12/05 06:53:37;;;;;;;15.23;7.82;;;4.90;99.90;;;;;;5093317;28;20526;-66
2022/12/05 06:56:07;;;;;;;13.02;6.80;;;4.90;99.90;;;;;;5090515;28;20046;-66
2022/12/05 06:58:32;;;;;;;18.10;8.20;;;4.90;99.90;;;;;;5092251;28;20031;-66
2022/12/05 07:03:47;;;;;;;15.10;7.28;;;4.90;99.90;;;;;;5110967;28;20044;-65
2022/12/05 07:06:14;;;;;;;13.25;7.10;;;4.90;99.90;;;;;;5110991;28;20047;-66
2022/12/05 07:08:40;;;;;;;16.77;7.47;;;4.90;99.90;;;;;;5111588;28;20366;-65
2022/12/05 07:11:06;;;;;;;14.75;7.47;;;4.90;99.90;;;;;;5110316;28;20046;-65
2022/12/05 07:13:32;;;;;;;17.35;7.95;;;4.90;99.90;;;;;;5072749;28;20095;-67
2022/12/05 07:15:58;;;;;;;19.30;7.88;;;4.90;99.90;;;;;;5104430;28;20090;-65
2022/12/05 07:18:24;;;;;;;14.27;7.38;;;4.90;99.90;;;;;;5073878;28;20044;-66
2022/12/05 07:21:01;;;;;;;17.13;8.00;;;4.90;99.90;;;;;;5106747;28;20035;-66
2022/12/05 07:23:27;;;;;;;15.32;7.25;;;4.90;99.90;;;;;;5089501;28;20035;-66
2022/12/05 07:25:53;;;;;;;15.50;6.97;;;4.90;99.90;;;;;;5101462;28;20562;-66
2022/12/05 07:28:19;;;;;;;18.40;7.72;;;4.90;99.90;;;;;;5107509;28;20482;-65
2022/12/05 07:30:44;;;;;;;16.25;7.55;;;4.90;99.90;;;;;;5111673;28;20085;-65
2022/12/05 07:33:10;;;;;;;15.15;8.23;;;4.90;99.90;;;;;;5096617;28;20035;-65
2022/12/05 07:35:36;;;;;;;17.67;8.60;;;4.90;99.90;;;;;;5101892;28;20047;-66
2022/12/05 07:38:02;;;;;;;18.08;8.43;;;4.90;99.90;;;;;;5092728;28;20150;-65
2022/12/05 07:40:27;;;;;;;18.40;7.55;;;4.90;99.90;;;;;;5098458;28;20043;-65
2022/12/05 07:42:53;;;;;;;16.70;8.15;;;4.90;99.90;;;;;;5092556;28;20032;-67
2022/12/05 07:45:20;;;;;;;18.45;8.40;;;4.90;99.90;;;;;;5076494;28;20043;-65
2022/12/05 07:47:46;;;;;;;17.08;8.15;;;4.90;99.90;;;;;;5084562;28;20428;-65
2022/12/05 07:50:12;;;;;;;15.13;8.35;;;4.90;99.90;;;;;;5081524;28;20071;-66
2022/12/05 07:52:38;;;;;;;19.17;8.25;;;4.90;99.90;;;;;;5109495;28;20491;-66
2022/12/05 07:55:05;;;;;;;17.50;8.80;;;4.90;99.90;;;;;;5108971;28;20093;-66
2022/12/05 07:57:30;;;;;;;19.40;7.97;;;4.90;99.90;;;;;;5090781;28;20089;-65
2022/12/05 07:59:56;;;;;;;18.27;8.13;;;4.90;99.90;;;;;;5075024;28;20039;-64
2022/12/05 08:02:22;;;;;;;17.65;8.88;;;5.00;99.90;;;;;;5106737;28;20412;-65
2022/12/05 08:04:47;;;;;;;17.92;7.95;;;4.90;99.90;;;;;;5089196;28;20450;-66
2022/12/05 08:07:13;;;;;;;19.15;8.85;;;4.90;99.90;;;;;;5092537;28;20092;-65
2022/12/05 08:09:39;;;;;;;19.17;9.00;;;4.90;99.90;;;;;;5110298;28;20085;-66
2022/12/05 08:12:04;;;;;;;19.45;8.63;;;4.90;99.90;;;;;;5095266;28;20047;-66
2022/12/05 08:14:30;;;;;;;21.23;9.30;;;4.90;99.90;;;;;;5096307;28;20048;-66
2022/12/05 08:16:56;;;;;;;18.60;8.25;;;4.90;99.90;;;;;;5095062;28;20680;-66
2022/12/05 08:19:21;;;;;;;22.52;8.80;;;5.00;99.90;;;;;;5114317;28;20074;-66
2022/12/05 08:21:47;;;;;;;18.63;8.63;;;5.00;99.90;;;;;;5097606;28;20043;-64
2022/12/05 08:24:13;;;;;;;19.02;8.68;;;5.00;99.90;;;;;;5114294;28;20141;-65
2022/12/05 08:26:39;;;;;;;16.83;8.10;;;4.90;99.90;;;;;;5109321;28;20028;-65
2022/12/05 08:29:08;;;;;;;22.63;8.63;;;4.90;99.90;;;;;;5088052;28;20375;-65
2022/12/05 08:31:39;;;;;;;17.38;7.53;;;5.00;99.90;;;;;;5100824;28;20063;-65
2022/12/05 08:34:04;;;;;;;19.70;8.63;;;4.90;99.90;;;;;;5112109;28;20075;-65
2022/12/05 08:36:30;;;;;;;18.20;8.43;;;4.90;99.90;;;;;;5089533;28;20576;-66
2022/12/05 08:38:58;;;;;;;18.35;8.23;;;4.90;99.90;;;;;;5108003;28;20046;-66
2022/12/05 08:41:28;;;;;;;13.75;7.30;;;4.90;99.90;;;;;;5094748;28;20043;-63
2022/12/05 08:44:04;;;;;;;14.57;8.30;;;4.90;99.90;;;;;;5096207;28;20081;-65
2022/12/05 08:46:31;;;;;;;13.30;7.43;;;4.90;99.90;;;;;;5114206;28;20031;-65
2022/12/05 08:48:57;;;;;;;15.60;7.93;;;4.90;99.90;;;;;;5112534;28;20044;-65
2022/12/05 08:51:22;;;;;;;17.40;9.18;;;4.90;99.90;;;;;;5097372;28;20406;-66
2022/12/05 08:53:48;;;;;;;18.95;7.68;;;4.90;99.90;;;;;;5083751;28;20043;-65
2022/12/05 08:56:13;;;;;;;15.98;7.80;;;4.90;99.90;;;;;;5106656;28;20043;-64
2022/12/05 08:58:39;;;;;;;19.13;8.20;;;5.00;99.90;;;;;;5107362;28;20084;-64
2022/12/05 09:01:14;;;;;;;18.52;8.77;;;4.90;99.90;;;;;;5114450;28;20032;-65
2022/12/05 09:03:41;;;;;;;17.40;8.38;;;4.90;99.90;;;;;;5108568;28;20032;-64
2022/12/05 09:06:09;;;;;;;17.40;8.20;;;4.90;99.90;;;;;;5112704;28;20035;-64
2022/12/05 09:08:36;;;;;;;17.17;8.88;;;4.90;99.90;;;;;;5091035;28;20046;-64
2022/12/05 09:11:11;;;;;;;18.55;8.27;;;5.00;99.90;;;;;;5094548;28;20031;-65
2022/12/05 09:13:36;;;;;;;17.85;7.80;;;4.90;99.90;;;;;;5110872;28;20059;-65
2022/12/05 09:16:14;;;;;;;13.52;7.80;;;5.00;99.90;;;;;;5094804;28;20059;-63
2022/12/05 09:18:39;;;;;;;19.50;8.63;;;4.90;99.90;;;;;;5094592;28;20096;-65
2022/12/05 09:21:17;;;;;;;16.52;7.78;;;4.90;99.90;;;;;;5095481;28;20463;-65
2022/12/05 09:23:42;;;;;;;16.60;8.00;;;4.90;99.90;;;;;;5096837;28;20051;-65
2022/12/05 09:26:11;;;;;;;18.13;7.72;;;4.90;99.90;;;;;;5105044;28;20044;-64
2022/12/05 09:28:37;;;;;;;18.98;8.57;;;4.90;99.90;;;;;;5108679;28;20042;-64
2022/12/05 09:31:05;;;;;;;14.15;7.97;;;5.00;99.90;;;;;;5112970;28;20592;-63
2022/12/05 09:33:33;;;;;;;16.25;7.85;;;5.00;99.90;;;;;;5094925;28;20046;-64
2022/12/05 09:36:12;;;;;;;16.90;7.72;;;4.90;99.90;;;;;;5109238;28;20050;-64
2022/12/05 09:38:38;;;;;;;17.30;7.80;;;5.00;99.90;;;;;;5110579;28;20431;-64
2022/12/05 09:44:34;;;;;;;16.87;7.97;;;4.90;99.90;;;;;;5110171;28;20043;-64
2022/12/05 09:47:05;;;;;;;17.02;7.95;;;5.00;99.90;;;;;;5102864;28;20105;-65
2022/12/05 09:49:32;;;;;;;17.83;7.75;;;4.90;99.90;;;;;;5088338;28;20047;-64
2022/12/05 09:52:00;;;;;;;19.60;8.10;;;4.90;99.90;;;;;;5112060;28;20390;-64
2022/12/05 09:54:27;;;;;;;19.38;8.95;;;5.00;99.90;;;;;;5112515;28;20380;-64
2022/12/05 09:56:52;;;;;;;18.92;8.23;;;5.00;99.90;;;;;;5111055;28;20039;-65
2022/12/05 09:59:19;;;;;;;15.77;8.00;;;4.90;99.90;;;;;;5088638;28;20150;-66
2022/12/05 10:01:56;;;;;;;18.75;8.73;;;5.00;99.90;;;;;;5087581;28;20031;-65
2022/12/05 10:04:32;;;;;;;20.20;8.63;;;5.00;99.90;;;;;;5109348;28;20032;-67
2022/12/05 10:07:21;;;;;;;20.92;8.32;;;4.90;99.90;;;;;;5102294;28;20045;-65
2022/12/05 10:09:58;;;;;;;16.63;8.23;;;5.00;99.90;;;;;;5105854;28;20044;-64
2022/12/05 10:12:51;;;;;;;17.40;8.02;;;5.00;99.90;;;;;;5098105;28;20059;-67
2022/12/05 10:15:55;;;;;;;15.43;7.50;;;4.90;99.90;;;;;;5093560;28;20032;-67
2022/12/05 10:18:40;;;;;;;17.77;8.05;;;5.00;99.90;;;;;;5014642;28;20595;-65
2022/12/05 10:21:20;;;;;;;16.77;7.85;;;5.00;99.90;;;;;;5065769;28;20041;-65
2022/12/05 10:23:52;;;;;;;;;;;4.90;99.90;;;;;;5095031;28;20071;-66
2022/12/05 10:26:19;;;;;;;16.95;8.20;;;4.90;99.90;;;;;;5073147;28;19951;-67
2022/12/05 10:29:07;;;;;;;16.88;8.00;;;4.90;99.90;;;;;;5069548;28;20048;-66
2022/12/05 10:31:35;;;;;;;18.00;8.23;;;4.90;99.90;;;;;;5096170;28;20035;-65
2022/12/05 10:34:32;;;;;;;16.02;8.10;;;4.90;99.90;;;;;;5080913;28;20390;-67
2022/12/05 10:37:18;;;;;;;18.60;7.63;;;4.90;99.90;;;;;;5088768;28;20078;-65
2022/12/05 10:39:49;;;;;;;18.50;8.02;;;4.90;99.90;;;;;;5107073;28;20035;-65
2022/12/05 10:42:42;;;;;;;17.40;8.10;;;4.90;99.90;;;;;;5106863;28;20032;-65
2022/12/05 10:45:17;;;;;;;17.73;7.97;;;4.90;99.90;;;;;;5103391;28;20161;-65
2022/12/05 10:47:42;;;;;;;17.15;8.55;;;4.90;99.90;;;;;;5112838;28;20039;-66
2022/12/05 10:50:30;;;;;;;17.92;7.82;;;4.90;99.90;;;;;;5109417;28;20043;-63
2022/12/05 10:52:57;;;;;;;16.50;7.82;;;4.90;99.90;;;;;;5103612;28;20032;-65
2022/12/05 10:55:35;;;;;;;18.08;7.57;;;4.90;99.90;;;;;;5110908;28;20039;-64
2022/12/05 10:58:11;;;;;;;15.38;7.80;;;4.90;99.90;;;;;;5110534;28;20434;-65
2022/12/05 11:00:43;;;;;;;14.32;7.55;;;4.90;99.90;;;;;;5108320;28;20513;-64
2022/12/05 11:03:26;;;;;;;13.98;7.07;;;4.90;99.90;;;;;;5085803;28;20108;-65
2022/12/05 11:05:54;;;;;;;14.20;7.10;;;4.90;99.90;;;;;;5068156;28;20039;-64
2022/12/05 11:08:31;;;;;;;16.08;7.18;;;4.90;99.90;;;;;;5087534;28;20039;-63
2022/12/05 11:11:14;;;;;;;14.38;7.03;;;4.90;99.90;;;;;;5105521;28;20081;-66
2022/12/05 11:13:53;;;;;;;15.88;7.07;;;4.90;99.90;;;;;;5097260;28;20111;-64
2022/12/05 11:16:28;;;;;;;12.23;6.55;;;4.90;99.90;;;;;;5096846;28;20067;-64
2022/12/05 11:18:54;;;;;;;14.60;7.43;;;5.00;99.90;;;;;;5078910;28;20035;-64
2022/12/05 11:21:19;;;;;;;16.20;7.38;;;5.00;99.90;;;;;;5084247;28;20080;-66
2022/12/05 11:23:46;;;;;;;15.23;7.20;;;5.00;99.90;;;;;;5081624;28;20047;-64
2022/12/05 11:26:36;;;;;;;13.98;7.78;;;5.00;99.90;;;;;;5077010;28;20139;-65
2022/12/05 11:29:03;;;;;;;15.43;6.85;;;5.00;99.90;;;;;;5100099;28;20043;-65
2022/12/05 11:31:30;;;;;;;15.27;7.13;;;5.00;99.90;;;;;;5097443;28;20043;-66
2022/12/05 11:34:21;;;;;;;15.00;6.90;;;5.00;99.90;;;;;;5096936;28;20076;-64
2022/12/05 11:36:55;;;;;;;12.32;6.45;;;5.00;99.90;;;;;;5070738;28;20417;-64
2022/12/05 11:39:20;;;;;;;13.43;6.75;;;5.00;99.90;;;;;;5073198;28;20052;-65
2022/12/05 11:42:15;;;;;;;14.65;7.13;;;5.10;99.90;;;;;;5075383;28;20032;-63
2022/12/05 11:45:04;;;;;;;14.27;6.50;;;5.10;99.90;;;;;;5101825;28;20060;-65
2022/12/05 11:48:09;;;;;;;13.55;7.00;;;5.00;99.90;;;;;;5111435;28;20046;-65
2022/12/05 11:51:05;;;;;;;11.90;6.32;;;5.10;99.90;;;;;;5096075;28;20051;-64
2022/12/05 11:54:02;;;;;;;12.88;6.57;;;5.10;99.90;;;;;;5077064;28;20047;-65
2022/12/05 11:56:37;;;;;;;16.10;7.28;;;5.10;99.90;;;;;;5090420;28;20040;-65
2022/12/05 11:59:43;;;;;;;11.63;6.30;;;5.10;99.90;;;;;;5096011;28;20044;-66
2022/12/05 12:02:33;;;;;;;12.13;6.40;;;5.10;99.90;;;;;;5102785;28;20032;-65
2022/12/05 12:05:26;;;;;;;14.70;6.35;;;5.10;99.90;;;;;;5115588;28;20040;-64
2022/12/05 12:08:06;;;;;;;11.10;5.78;;;5.10;99.90;;;;;;5115895;28;20414;-65
2022/12/05 12:10:58;;;;;;;13.40;5.40;;;5.10;99.90;;;;;;5095846;28;20047;-64
2022/12/05 12:13:45;;;;;;;11.02;6.03;;;5.10;99.90;;;;;;5111810;28;20544;-65
2022/12/05 12:16:29;;;;;;;12.52;5.78;;;5.10;99.90;;;;;;5112367;28;20051;-65
2022/12/05 12:19:25;;;;;;;11.52;5.57;;;5.10;99.90;;;;;;5114405;28;20031;-65
2022/12/05 12:22:34;;;;;;;11.88;5.25;;;5.10;99.90;;;;;;5095978;28;20031;-64
2022/12/05 12:25:21;;;;;;;12.23;5.88;;;5.10;99.90;;;;;;5114166;28;20120;-64
2022/12/05 12:27:55;;;;;;;10.20;5.43;;;5.10;99.90;;;;;;5112310;28;20050;-65
2022/12/05 12:30:26;;;;;;;8.98;4.78;;;5.10;99.90;;;;;;5110556;28;20035;-64
2022/12/05 12:33:09;;;;;;;9.82;4.65;;;5.10;99.90;;;;;;5109914;28;20039;-65
2022/12/05 12:36:04;;;;;;;10.70;5.15;;;5.10;99.90;;;;;;5114389;28;20471;-64
2022/12/05 12:39:05;;;;;;;11.30;4.97;;;5.10;99.90;;;;;;5063230;28;20052;-65
2022/12/05 12:41:42;;;;;;;9.50;4.90;;;5.10;99.90;;;;;;5110810;28;20496;-65
2022/12/05 12:44:38;;;;;;;10.48;5.10;;;5.10;99.90;;;;;;5112967;28;20067;-65
2022/12/05 12:47:12;;;;;;;7.68;4.38;;;5.10;99.90;;;;;;5105017;28;20039;-64
2022/12/05 12:49:53;;;;;;;9.43;4.75;;;5.10;99.90;;;;;;5114852;28;20599;-65
2022/12/05 12:52:23;;;;;;;;;;;5.10;99.90;;;;;;5111691;28;20048;-64
2022/12/05 12:55:10;;;;;;;9.70;4.35;;;5.10;99.90;;;;;;5112070;28;19920;-65
2022/12/05 12:58:04;;;;;;;9.38;4.95;;;5.10;99.90;;;;;;5108002;28;20044;-65
2022/12/05 13:00:45;;;;;;;8.52;4.57;;;5.10;99.90;;;;;;5097939;28;20604;-65
2022/12/05 13:03:27;;;;;;;7.97;4.18;;;5.10;99.90;;;;;;5108462;28;20409;-64
2022/12/05 13:05:59;;;;;;;10.13;4.28;;;5.10;99.90;;;;;;5113305;28;20047;-64
2022/12/05 13:08:43;;;;;;;8.57;4.00;;;5.10;99.90;;;;;;5095815;28;20051;-64
2022/12/05 13:11:12;;;;;;;10.93;4.53;;;5.10;99.90;;;;;;5112998;28;20043;-64
2022/12/05 13:13:52;;;;;;;7.47;4.30;;;5.10;99.90;;;;;;5091996;28;20083;-64
2022/12/05 13:16:31;;;;;;;9.55;4.65;;;5.10;99.90;;;;;;5086864;28;20112;-64
2022/12/05 13:18:58;;;;;;;9.30;4.50;;;5.10;99.90;;;;;;5090360;28;20040;-65
2022/12/05 13:21:24;;;;;;;8.70;4.45;;;5.10;99.90;;;;;;5089161;28;20044;-65
2022/12/05 13:23:54;;;;;;;7.13;4.07;;;5.10;99.90;;;;;;5089021;28;20035;-66